Time,TemperatureF,DewpointF,PressureIn,WindDirection,WindDirectionDegrees,WindSpeedMPH,WindSpeedGustMPH,Humidity,HourlyPrecipIn,Conditions,Clouds,dailyrainin,SoftwareType,DateUTC
2013-01-05 00:00:00,22.8,17.0,30.29,SW,225,0.7,0.7,78,0.00,,,0.00,WUHU21623XXSP,2013-01-05 05:00:00,
2013-01-05 00:03:00,22.6,16.8,30.28,SW,225,0.0,0.7,78,0.00,,,0.00,WUHU21623XXSP,2013-01-05 05:03:00,
2013-01-05 00:08:00,22.6,16.8,30.29,SW,225,0.0,0.7,78,0.00,,,0.00,WUHU21623XXSP,2013-01-05 05:08:00,
2013-01-05 00:13:00,22.5,16.6,30.29,SW,225,0.0,0.0,78,0.00,,,0.00,WUHU21623XXSP,2013-01-05 05:13:00,
2013-01-05 00:18:00,22.3,16.4,30.29,SW,225,0.0,0.0,78,0.00,,,0.00,WUHU21623XXSP,2013-01-05 05:18:00,
2013-01-05 00:23:00,22.3,16.4,30.29,WSW,247,0.0,0.0,78,0.00,,,0.00,WUHU21623XXSP,2013-01-05 05:23:00,
2013-01-05 00:28:00,22.3,16.4,30.29,WSW,247,0.0,0.0,78,0.00,,,0.00,WUHU21623XXSP,2013-01-05 05:28:00,
2013-01-05 00:33:00,22.1,16.3,30.29,WSW,247,0.0,0.0,78,0.00,,,0.00,WUHU21623XXSP,2013-01-05 05:33:00,
2013-01-05 00:38:00,21.9,16.1,30.29,West,270,0.0,0.0,78,0.00,,,0.00,WUHU21623XXSP,2013-01-05 05:38:00,
2013-01-05 00:43:00,21.9,16.1,30.29,West,270,0.0,0.0,78,0.00,,,0.00,WUHU21623XXSP,2013-01-05 05:43:00,
2013-01-05 00:48:00,21.9,16.4,30.28,SSW,202,0.0,0.0,79,0.00,,,0.00,WUHU21623XXSP,2013-01-05 05:48:00,
2013-01-05 00:53:00,21.9,16.4,30.29,SSW,202,1.1,1.1,79,0.00,,,0.00,WUHU21623XXSP,2013-01-05 05:53:00,
2013-01-05 00:58:00,21.9,16.4,30.29,SW,225,0.0,1.1,79,0.00,,,0.00,WUHU21623XXSP,2013-01-05 05:58:00,
2013-01-05 01:03:00,21.7,16.2,30.28,SW,225,0.0,1.1,79,0.00,,,0.00,WUHU21623XXSP,2013-01-05 06:03:00,
2013-01-05 01:08:00,21.7,16.2,30.28,SW,225,0.0,0.0,79,0.00,,,0.00,WUHU21623XXSP,2013-01-05 06:08:00,
2013-01-05 01:13:00,21.6,16.0,30.29,WSW,247,0.0,0.0,79,0.00,,,0.00,WUHU21623XXSP,2013-01-05 06:13:00,
2013-01-05 01:18:00,21.6,16.0,30.28,SW,225,0.0,0.0,79,0.00,,,0.00,WUHU21623XXSP,2013-01-05 06:18:00,
2013-01-05 01:23:00,21.4,15.9,30.29,SW,225,0.0,0.0,79,0.00,,,0.00,WUHU21623XXSP,2013-01-05 06:23:00,
2013-01-05 01:28:00,21.4,15.9,30.28,WSW,247,0.0,0.0,79,0.00,,,0.00,WUHU21623XXSP,2013-01-05 06:28:00,
2013-01-05 01:33:00,21.4,15.9,30.28,West,270,0.0,0.0,79,0.00,,,0.00,WUHU21623XXSP,2013-01-05 06:33:00,
2013-01-05 01:38:00,21.2,15.7,30.28,WSW,247,0.0,0.0,79,0.00,,,0.00,WUHU21623XXSP,2013-01-05 06:38:00,
2013-01-05 01:43:00,21.0,15.5,30.28,SW,225,0.7,0.7,79,0.00,,,0.00,WUHU21623XXSP,2013-01-05 06:43:00,
2013-01-05 01:48:00,21.0,15.5,30.28,SW,225,0.0,0.7,79,0.00,,,0.00,WUHU21623XXSP,2013-01-05 06:48:00,
2013-01-05 01:53:00,21.0,15.5,30.28,SW,225,0.0,0.7,79,0.00,,,0.00,WUHU21623XXSP,2013-01-05 06:53:00,
2013-01-05 01:58:00,21.0,15.5,30.28,SW,225,0.0,0.0,79,0.00,,,0.00,WUHU21623XXSP,2013-01-05 06:58:00,
2013-01-05 02:03:00,20.8,15.3,30.28,SW,225,0.0,0.0,79,0.00,,,0.00,WUHU21623XXSP,2013-01-05 07:03:00,
2013-01-05 02:08:00,20.5,15.0,30.28,SW,225,0.0,0.0,79,0.00,,,0.00,WUHU21623XXSP,2013-01-05 07:08:00,
2013-01-05 02:13:00,20.1,14.6,30.27,SW,225,0.0,0.0,79,0.00,,,0.00,WUHU21623XXSP,2013-01-05 07:13:00,
2013-01-05 02:18:00,19.6,13.7,30.27,SW,225,0.0,0.0,78,0.00,,,0.00,WUHU21623XXSP,2013-01-05 07:18:00,
2013-01-05 02:23:00,19.6,13.7,30.28,SW,225,0.0,0.0,78,0.00,,,0.00,WUHU21623XXSP,2013-01-05 07:23:00,
2013-01-05 02:28:00,18.7,12.8,30.28,SW,225,0.0,0.0,78,0.00,,,0.00,WUHU21623XXSP,2013-01-05 07:28:00,
2013-01-05 02:33:00,18.5,12.7,30.29,SW,225,0.0,0.0,78,0.00,,,0.00,WUHU21623XXSP,2013-01-05 07:33:00,
2013-01-05 02:38:00,17.8,11.7,30.29,SW,225,0.0,0.0,77,0.00,,,0.00,WUHU21623XXSP,2013-01-05 07:38:00,
2013-01-05 02:43:00,17.2,11.2,30.29,SW,225,0.0,0.0,77,0.00,,,0.00,WUHU21623XXSP,2013-01-05 07:43:00,
2013-01-05 02:48:00,16.3,10.6,30.30,SW,225,0.0,0.0,78,0.00,,,0.00,WUHU21623XXSP,2013-01-05 07:48:00,
2013-01-05 02:53:00,16.3,10.6,30.30,SW,225,0.0,0.0,78,0.00,,,0.00,WUHU21623XXSP,2013-01-05 07:53:00,
2013-01-05 02:58:00,16.2,10.5,30.30,SW,225,0.0,0.0,78,0.00,,,0.00,WUHU21623XXSP,2013-01-05 07:58:00,
2013-01-05 03:03:00,16.0,10.6,30.30,SW,225,0.0,0.0,79,0.00,,,0.00,WUHU21623XXSP,2013-01-05 08:03:00,
2013-01-05 03:09:00,16.0,10.6,30.30,SW,225,0.0,0.0,79,0.00,,,0.00,WUHU21623XXSP,2013-01-05 08:09:00,
2013-01-05 03:14:00,16.3,11.2,30.30,SW,225,0.0,0.0,80,0.00,,,0.00,WUHU21623XXSP,2013-01-05 08:14:00,
2013-01-05 03:19:00,16.5,11.4,30.30,SW,225,0.0,0.0,80,0.00,,,0.00,WUHU21623XXSP,2013-01-05 08:19:00,
2013-01-05 03:24:00,16.7,11.6,30.30,SW,225,0.0,0.0,80,0.00,,,0.00,WUHU21623XXSP,2013-01-05 08:24:00,
2013-01-05 03:29:00,16.9,12.0,30.30,SW,225,0.0,0.0,81,0.00,,,0.00,WUHU21623XXSP,2013-01-05 08:29:00,
2013-01-05 03:34:00,16.9,12.0,30.31,SW,225,0.0,0.0,81,0.00,,,0.00,WUHU21623XXSP,2013-01-05 08:34:00,
2013-01-05 03:39:00,17.1,12.1,30.31,SW,225,0.0,0.0,81,0.00,,,0.00,WUHU21623XXSP,2013-01-05 08:39:00,
2013-01-05 03:44:00,17.2,12.3,30.30,SW,225,0.0,0.0,81,0.00,,,0.00,WUHU21623XXSP,2013-01-05 08:44:00,
2013-01-05 03:49:00,17.2,12.3,30.30,SW,225,0.0,0.0,81,0.00,,,0.00,WUHU21623XXSP,2013-01-05 08:49:00,
2013-01-05 03:54:00,17.4,12.5,30.30,WSW,247,0.0,0.0,81,0.00,,,0.00,WUHU21623XXSP,2013-01-05 08:54:00,
2013-01-05 03:59:00,17.4,12.5,30.30,WSW,247,1.1,1.1,81,0.00,,,0.00,WUHU21623XXSP,2013-01-05 08:59:00,
2013-01-05 04:04:00,17.4,12.5,30.30,WSW,247,1.1,1.1,81,0.00,,,0.00,WUHU21623XXSP,2013-01-05 09:04:00,
2013-01-05 04:09:00,17.4,12.5,30.30,WSW,247,1.1,1.1,81,0.00,,,0.00,WUHU21623XXSP,2013-01-05 09:09:00,
2013-01-05 04:14:00,18.5,13.8,30.30,WSW,247,0.0,1.1,82,0.00,,,0.00,WUHU21623XXSP,2013-01-05 09:14:00,
2013-01-05 04:19:00,18.9,14.2,30.30,WSW,247,0.0,1.1,82,0.00,,,0.00,WUHU21623XXSP,2013-01-05 09:19:00,
2013-01-05 04:24:00,19.0,14.4,30.30,WSW,247,0.0,0.0,82,0.00,,,0.00,WUHU21623XXSP,2013-01-05 09:24:00,
2013-01-05 04:29:00,19.2,14.5,30.30,WSW,247,0.0,0.0,82,0.00,,,0.00,WUHU21623XXSP,2013-01-05 09:29:00,
2013-01-05 04:34:00,19.2,14.5,30.29,WSW,247,0.0,0.0,82,0.00,,,0.00,WUHU21623XXSP,2013-01-05 09:34:00,
2013-01-05 04:39:00,19.2,14.5,30.29,WSW,247,0.0,0.0,82,0.00,,,0.00,WUHU21623XXSP,2013-01-05 09:39:00,
2013-01-05 04:44:00,19.2,14.5,30.29,WSW,247,0.0,0.0,82,0.00,,,0.00,WUHU21623XXSP,2013-01-05 09:44:00,
2013-01-05 04:49:00,19.2,14.5,30.29,WSW,247,0.0,0.0,82,0.00,,,0.00,WUHU21623XXSP,2013-01-05 09:49:00,
2013-01-05 04:54:00,19.2,14.5,30.29,WSW,247,0.0,0.0,82,0.00,,,0.00,WUHU21623XXSP,2013-01-05 09:54:00,
2013-01-05 04:59:00,19.0,14.4,30.29,WSW,247,0.0,0.0,82,0.00,,,0.00,WUHU21623XXSP,2013-01-05 09:59:00,
2013-01-05 05:04:00,19.0,14.4,30.29,WSW,247,0.0,0.0,82,0.00,,,0.00,WUHU21623XXSP,2013-01-05 10:04:00,
2013-01-05 05:09:00,18.5,13.8,30.29,WSW,247,0.0,0.0,82,0.00,,,0.00,WUHU21623XXSP,2013-01-05 10:09:00,
2013-01-05 05:14:00,18.3,13.6,30.29,WSW,247,0.0,0.0,82,0.00,,,0.00,WUHU21623XXSP,2013-01-05 10:14:00,
2013-01-05 05:19:00,18.3,13.4,30.29,WSW,247,0.0,0.0,81,0.00,,,0.00,WUHU21623XXSP,2013-01-05 10:19:00,
2013-01-05 05:24:00,17.8,12.8,30.29,WSW,247,0.0,0.0,81,0.00,,,0.00,WUHU21623XXSP,2013-01-05 10:24:00,
2013-01-05 05:29:00,17.8,12.8,30.29,WSW,247,0.0,0.0,81,0.00,,,0.00,WUHU21623XXSP,2013-01-05 10:29:00,
2013-01-05 05:34:00,17.2,12.3,30.29,WSW,247,0.0,0.0,81,0.00,,,0.00,WUHU21623XXSP,2013-01-05 10:34:00,
2013-01-05 05:39:00,17.1,12.1,30.29,WSW,247,0.0,0.0,81,0.00,,,0.00,WUHU21623XXSP,2013-01-05 10:39:00,
2013-01-05 05:44:00,16.9,12.0,30.29,WSW,247,0.0,0.0,81,0.00,,,0.00,WUHU21623XXSP,2013-01-05 10:44:00,
2013-01-05 05:49:00,16.3,11.5,30.29,WSW,247,0.0,0.0,81,0.00,,,0.00,WUHU21623XXSP,2013-01-05 10:49:00,
2013-01-05 05:54:00,16.3,11.5,30.30,WSW,247,0.0,0.0,81,0.00,,,0.00,WUHU21623XXSP,2013-01-05 10:54:00,
2013-01-05 05:59:00,16.0,11.2,30.29,WSW,247,0.0,0.0,81,0.00,,,0.00,WUHU21623XXSP,2013-01-05 10:59:00,
2013-01-05 06:04:00,15.6,10.8,30.29,WSW,247,0.0,0.0,81,0.00,,,0.00,WUHU21623XXSP,2013-01-05 11:04:00,
2013-01-05 06:09:00,15.6,10.8,30.30,WSW,247,0.0,0.0,81,0.00,,,0.00,WUHU21623XXSP,2013-01-05 11:09:00,
2013-01-05 06:14:00,15.4,10.7,30.30,WSW,247,0.0,0.0,81,0.00,,,0.00,WUHU21623XXSP,2013-01-05 11:14:00,
2013-01-05 06:19:00,15.4,10.7,30.30,WSW,247,0.0,0.0,81,0.00,,,0.00,WUHU21623XXSP,2013-01-05 11:19:00,
2013-01-05 06:24:00,15.3,10.5,30.30,WSW,247,0.0,0.0,81,0.00,,,0.00,WUHU21623XXSP,2013-01-05 11:24:00,
2013-01-05 06:29:00,15.3,10.5,30.29,WSW,247,0.0,0.0,81,0.00,,,0.00,WUHU21623XXSP,2013-01-05 11:29:00,
2013-01-05 06:34:00,15.1,10.3,30.29,WSW,247,0.0,0.0,81,0.00,,,0.00,WUHU21623XXSP,2013-01-05 11:34:00,
2013-01-05 06:39:00,15.1,10.3,30.29,WSW,247,0.0,0.0,81,0.00,,,0.00,WUHU21623XXSP,2013-01-05 11:39:00,
2013-01-05 06:44:00,15.1,10.3,30.29,WSW,247,0.0,0.0,81,0.00,,,0.00,WUHU21623XXSP,2013-01-05 11:44:00,
2013-01-05 06:49:00,15.1,10.5,30.29,WSW,247,0.0,0.0,82,0.00,,,0.00,WUHU21623XXSP,2013-01-05 11:49:00,
2013-01-05 06:54:00,15.3,10.7,30.29,WSW,247,0.0,0.0,82,0.00,,,0.00,WUHU21623XXSP,2013-01-05 11:54:00,
2013-01-05 06:59:00,15.3,10.7,30.28,WSW,247,0.0,0.0,82,0.00,,,0.00,WUHU21623XXSP,2013-01-05 11:59:00,
2013-01-05 07:04:00,15.4,10.9,30.29,WSW,247,0.0,0.0,82,0.00,,,0.00,WUHU21623XXSP,2013-01-05 12:04:00,
2013-01-05 07:09:00,15.4,10.9,30.28,WSW,247,0.0,0.0,82,0.00,,,0.00,WUHU21623XXSP,2013-01-05 12:09:00,
2013-01-05 07:14:00,15.4,10.9,30.28,WSW,247,0.0,0.0,82,0.00,,,0.00,WUHU21623XXSP,2013-01-05 12:14:00,
2013-01-05 07:19:00,15.3,10.7,30.29,WSW,247,0.0,0.0,82,0.00,,,0.00,WUHU21623XXSP,2013-01-05 12:19:00,
2013-01-05 07:24:00,14.9,10.4,30.29,WSW,247,0.0,0.0,82,0.00,,,0.00,WUHU21623XXSP,2013-01-05 12:24:00,
2013-01-05 07:29:00,14.7,10.2,30.29,WSW,247,0.0,0.0,82,0.00,,,0.00,WUHU21623XXSP,2013-01-05 12:29:00,
2013-01-05 07:34:00,14.7,10.2,30.29,WSW,247,0.0,0.0,82,0.00,,,0.00,WUHU21623XXSP,2013-01-05 12:34:00,
2013-01-05 07:39:00,14.5,10.0,30.28,WSW,247,0.0,0.0,82,0.00,,,0.00,WUHU21623XXSP,2013-01-05 12:39:00,
2013-01-05 07:44:00,14.5,10.0,30.28,WSW,247,0.0,0.0,82,0.00,,,0.00,WUHU21623XXSP,2013-01-05 12:44:00,
2013-01-05 07:49:00,14.5,10.0,30.28,WSW,247,0.0,0.0,82,0.00,,,0.00,WUHU21623XXSP,2013-01-05 12:49:00,
2013-01-05 07:54:00,14.7,10.5,30.29,WSW,247,0.0,0.0,83,0.00,,,0.00,WUHU21623XXSP,2013-01-05 12:54:00,
2013-01-05 07:59:00,14.7,10.5,30.29,WSW,247,0.0,0.0,83,0.00,,,0.00,WUHU21623XXSP,2013-01-05 12:59:00,
2013-01-05 08:04:00,14.7,10.5,30.28,WSW,247,0.0,0.0,83,0.00,,,0.00,WUHU21623XXSP,2013-01-05 13:04:00,
2013-01-05 08:09:00,14.4,9.8,30.29,WSW,247,0.0,0.0,82,0.00,,,0.00,WUHU21623XXSP,2013-01-05 13:09:00,
2013-01-05 08:14:00,14.2,9.9,30.29,WSW,247,0.0,0.0,83,0.00,,,0.00,WUHU21623XXSP,2013-01-05 13:14:00,
2013-01-05 08:19:00,14.2,9.9,30.29,WSW,247,0.0,0.0,83,0.00,,,0.00,WUHU21623XXSP,2013-01-05 13:19:00,
2013-01-05 08:24:00,14.4,10.1,30.28,WSW,247,0.0,0.0,83,0.00,,,0.00,WUHU21623XXSP,2013-01-05 13:24:00,
2013-01-05 08:37:00,14.7,10.5,30.29,SW,225,0.0,0.0,83,0.00,,,0.00,WUHU21623XXSP,2013-01-05 13:37:00,
2013-01-05 08:42:00,14.9,10.6,30.29,SW,225,0.0,0.0,83,0.00,,,0.00,WUHU21623XXSP,2013-01-05 13:42:00,
2013-01-05 08:47:00,14.9,10.6,30.30,SW,225,0.0,0.0,83,0.00,,,0.00,WUHU21623XXSP,2013-01-05 13:47:00,
2013-01-05 08:52:00,14.9,10.6,30.30,SW,225,0.0,0.0,83,0.00,,,0.00,WUHU21623XXSP,2013-01-05 13:52:00,
2013-01-05 08:57:00,14.9,10.6,30.30,SW,225,0.0,0.0,83,0.00,,,0.00,WUHU21623XXSP,2013-01-05 13:57:00,
2013-01-05 09:02:00,15.1,10.8,30.31,SW,225,0.0,0.0,83,0.00,,,0.00,WUHU21623XXSP,2013-01-05 14:02:00,
2013-01-05 09:07:00,15.4,11.2,30.30,SW,225,0.0,0.0,83,0.00,,,0.00,WUHU21623XXSP,2013-01-05 14:07:00,
2013-01-05 09:12:00,16.0,11.9,30.29,South,180,0.0,0.0,84,0.00,,,0.00,WUHU21623XXSP,2013-01-05 14:12:00,
2013-01-05 09:17:00,17.2,13.1,30.29,SSE,157,0.0,0.0,84,0.00,,,0.00,WUHU21623XXSP,2013-01-05 14:17:00,
2013-01-05 09:22:00,18.1,14.0,30.29,SSE,157,0.0,0.0,84,0.00,,,0.00,WUHU21623XXSP,2013-01-05 14:22:00,
2013-01-05 09:27:00,19.2,15.3,30.28,SSE,157,0.0,0.0,85,0.00,,,0.00,WUHU21623XXSP,2013-01-05 14:27:00,
2013-01-05 09:32:00,21.0,17.4,30.28,SSE,157,1.6,1.6,86,0.00,,,0.00,WUHU21623XXSP,2013-01-05 14:32:00,
2013-01-05 09:37:00,21.7,18.1,30.28,SSE,157,0.0,1.6,86,0.00,,,0.00,WUHU21623XXSP,2013-01-05 14:37:00,
2013-01-05 09:42:00,23.0,19.1,30.28,SSE,157,0.0,1.6,85,0.00,,,0.00,WUHU21623XXSP,2013-01-05 14:42:00,
2013-01-05 09:47:00,23.7,19.3,30.28,SSE,157,0.0,0.0,83,0.00,,,0.00,WUHU21623XXSP,2013-01-05 14:47:00,
2013-01-05 09:52:00,23.9,19.5,30.29,SSE,157,0.0,0.0,83,0.00,,,0.00,WUHU21623XXSP,2013-01-05 14:52:00,
2013-01-05 09:57:00,23.7,19.0,30.29,SSE,157,0.0,0.0,82,0.00,,,0.00,WUHU21623XXSP,2013-01-05 14:57:00,
2013-01-05 10:02:00,23.9,19.2,30.29,SSE,157,0.0,0.0,82,0.00,,,0.00,WUHU21623XXSP,2013-01-05 15:02:00,
2013-01-05 10:07:00,24.4,19.5,30.29,SSE,157,0.0,0.0,81,0.00,,,0.00,WUHU21623XXSP,2013-01-05 15:07:00,
2013-01-05 10:12:00,24.4,19.5,30.29,SSE,157,0.0,0.0,81,0.00,,,0.00,WUHU21623XXSP,2013-01-05 15:12:00,
2013-01-05 10:17:00,24.6,19.7,30.29,SSE,157,0.0,0.0,81,0.00,,,0.00,WUHU21623XXSP,2013-01-05 15:17:00,
2013-01-05 10:22:00,24.6,19.7,30.29,SSE,157,1.6,1.6,81,0.00,,,0.00,WUHU21623XXSP,2013-01-05 15:22:00,
2013-01-05 10:27:00,24.6,19.7,30.28,SSE,157,0.0,1.6,81,0.00,,,0.00,WUHU21623XXSP,2013-01-05 15:27:00,
2013-01-05 10:32:00,25.0,19.7,30.28,SSE,157,0.7,0.7,80,0.00,,,0.00,WUHU21623XXSP,2013-01-05 15:32:00,
2013-01-05 10:37:00,25.0,19.7,30.28,SE,135,0.0,0.7,80,0.00,,,0.00,WUHU21623XXSP,2013-01-05 15:37:00,
2013-01-05 10:42:00,25.2,19.9,30.28,SE,135,0.0,0.7,80,0.00,,,0.00,WUHU21623XXSP,2013-01-05 15:42:00,
2013-01-05 10:47:00,25.5,20.2,30.27,SSE,157,0.0,0.0,80,0.00,,,0.00,WUHU21623XXSP,2013-01-05 15:47:00,
2013-01-05 10:52:00,25.7,20.4,30.27,SSE,157,0.0,0.0,80,0.00,,,0.00,WUHU21623XXSP,2013-01-05 15:52:00,
2013-01-05 10:57:00,25.9,20.6,30.27,South,180,0.0,0.0,80,0.00,,,0.00,WUHU21623XXSP,2013-01-05 15:57:00,
2013-01-05 11:02:00,27.1,22.1,30.27,SE,135,0.7,0.7,81,0.00,,,0.00,WUHU21623XXSP,2013-01-05 16:02:00,
2013-01-05 11:07:00,27.5,22.2,30.27,South,180,0.0,0.7,80,0.00,,,0.00,WUHU21623XXSP,2013-01-05 16:07:00,
2013-01-05 11:12:00,27.8,22.5,30.27,SSW,202,0.0,0.0,80,0.00,,,0.00,WUHU21623XXSP,2013-01-05 16:12:00,
2013-01-05 11:17:00,28.4,22.8,30.27,WSW,247,1.6,1.6,79,0.00,,,0.00,WUHU21623XXSP,2013-01-05 16:17:00,
2013-01-05 11:22:00,28.4,22.8,30.27,WSW,247,5.5,7.4,79,0.00,,,0.00,WUHU21623XXSP,2013-01-05 16:22:00,
2013-01-05 11:27:00,28.1,22.2,30.27,SW,225,2.5,7.4,78,0.00,,,0.00,WUHU21623XXSP,2013-01-05 16:27:00,
2013-01-05 11:32:00,28.0,22.1,30.27,SW,225,2.0,4.0,78,0.00,,,0.00,WUHU21623XXSP,2013-01-05 16:32:00,
2013-01-05 11:37:00,28.2,22.2,30.27,SW,225,2.0,2.5,78,0.00,,,0.00,WUHU21623XXSP,2013-01-05 16:37:00,
2013-01-05 11:42:00,28.2,22.2,30.27,SW,225,2.6,3.1,78,0.00,,,0.00,WUHU21623XXSP,2013-01-05 16:42:00,
2013-01-05 11:47:00,28.5,22.2,30.26,SW,225,0.0,4.9,77,0.00,,,0.00,WUHU21623XXSP,2013-01-05 16:47:00,
2013-01-05 11:52:00,28.7,22.4,30.26,SSW,202,2.0,4.9,77,0.00,,,0.00,WUHU21623XXSP,2013-01-05 16:52:00,
2013-01-05 11:57:00,29.0,22.8,30.26,SSW,202,2.0,2.0,77,0.00,,,0.00,WUHU21623XXSP,2013-01-05 16:57:00,
2013-01-05 12:02:00,29.1,22.5,30.26,South,180,2.2,2.2,76,0.00,,,0.00,WUHU21623XXSP,2013-01-05 17:02:00,
2013-01-05 12:07:00,28.8,21.9,30.25,South,180,2.2,2.2,75,0.00,,,0.00,WUHU21623XXSP,2013-01-05 17:07:00,
2013-01-05 12:12:00,28.6,21.7,30.24,SSW,202,0.0,2.2,75,0.00,,,0.00,WUHU21623XXSP,2013-01-05 17:12:00,
2013-01-05 12:17:00,28.0,21.2,30.24,SW,225,1.6,2.2,75,0.00,,,0.00,WUHU21623XXSP,2013-01-05 17:17:00,
2013-01-05 12:22:00,27.6,20.7,30.24,SSW,202,0.0,1.6,75,0.00,,,0.00,WUHU21623XXSP,2013-01-05 17:22:00,
2013-01-05 12:27:00,27.4,20.5,30.23,SW,225,0.9,1.6,75,0.00,,,0.00,WUHU21623XXSP,2013-01-05 17:27:00,
2013-01-05 12:32:00,27.3,20.5,30.24,SW,225,0.7,1.6,75,0.00,,,0.00,WUHU21623XXSP,2013-01-05 17:32:00,
2013-01-05 12:37:00,26.9,19.8,30.23,SW,225,1.3,1.3,74,0.00,,,0.00,WUHU21623XXSP,2013-01-05 17:37:00,
2013-01-05 12:42:00,26.7,19.6,30.23,SW,225,3.6,3.6,74,0.00,,,0.00,WUHU21623XXSP,2013-01-05 17:42:00,
2013-01-05 12:47:00,26.8,19.9,30.23,SE,135,0.0,3.6,75,0.00,,,0.00,WUHU21623XXSP,2013-01-05 17:47:00,
2013-01-05 12:52:00,26.7,19.9,30.23,SW,225,2.5,3.6,75,0.00,,,0.00,WUHU21623XXSP,2013-01-05 17:52:00,
2013-01-05 12:57:00,26.7,19.6,30.22,SSW,202,2.5,2.5,74,0.00,,,0.00,WUHU21623XXSP,2013-01-05 17:57:00,
2013-01-05 13:02:00,26.8,19.6,30.22,SSW,202,0.0,2.5,74,0.00,,,0.00,WUHU21623XXSP,2013-01-05 18:02:00,
2013-01-05 13:07:00,26.8,19.7,30.22,SSW,202,0.0,2.5,74,0.00,,,0.00,WUHU21623XXSP,2013-01-05 18:07:00,
2013-01-05 13:12:00,26.7,19.6,30.21,SW,225,1.8,2.9,74,0.00,,,0.00,WUHU21623XXSP,2013-01-05 18:12:00,
2013-01-05 13:17:00,26.6,19.1,30.21,SW,225,0.7,6.5,73,0.00,,,0.00,WUHU21623XXSP,2013-01-05 18:17:00,
2013-01-05 13:22:00,26.5,19.0,30.20,West,270,3.8,6.5,73,0.00,,,0.00,WUHU21623XXSP,2013-01-05 18:22:00,
2013-01-05 13:27:00,26.4,18.9,30.20,SE,135,1.6,3.8,73,0.00,,,0.00,WUHU21623XXSP,2013-01-05 18:27:00,
2013-01-05 13:32:00,26.3,19.2,30.20,WSW,247,0.0,1.6,74,0.00,,,0.00,WUHU21623XXSP,2013-01-05 18:32:00,
2013-01-05 13:37:00,26.5,19.4,30.20,SW,225,0.0,1.6,74,0.00,,,0.00,WUHU21623XXSP,2013-01-05 18:37:00,
2013-01-05 13:42:00,26.7,19.5,30.19,SW,225,0.4,0.4,74,0.00,,,0.00,WUHU21623XXSP,2013-01-05 18:42:00,
2013-01-05 13:47:00,26.8,19.7,30.19,SSE,157,0.0,0.4,74,0.00,,,0.00,WUHU21623XXSP,2013-01-05 18:47:00,
2013-01-05 13:52:00,26.8,19.7,30.18,SSE,157,0.0,0.4,74,0.00,,,0.00,WUHU21623XXSP,2013-01-05 18:52:00,
2013-01-05 13:57:00,27.2,19.7,30.19,SW,225,1.6,1.6,73,0.00,,,0.00,WUHU21623XXSP,2013-01-05 18:57:00,
2013-01-05 14:02:00,27.0,19.5,30.19,SSW,202,0.0,3.8,73,0.00,,,0.00,WUHU21623XXSP,2013-01-05 19:02:00,
2013-01-05 14:07:00,27.0,19.6,30.18,West,270,0.0,3.8,73,0.00,,,0.00,WUHU21623XXSP,2013-01-05 19:07:00,
2013-01-05 14:12:00,27.0,19.6,30.18,SSW,202,2.5,2.5,73,0.00,,,0.00,WUHU21623XXSP,2013-01-05 19:12:00,
2013-01-05 14:17:00,27.3,19.8,30.17,SW,225,1.8,2.5,73,0.00,,,0.00,WUHU21623XXSP,2013-01-05 19:17:00,
2013-01-05 14:22:00,27.3,19.9,30.18,SW,225,1.8,2.5,73,0.00,,,0.00,WUHU21623XXSP,2013-01-05 19:22:00,
2013-01-05 14:27:00,27.4,19.9,30.17,West,270,0.0,1.8,73,0.00,,,0.00,WUHU21623XXSP,2013-01-05 19:27:00,
2013-01-05 14:32:00,27.6,20.1,30.16,SW,225,5.1,5.1,73,0.00,,,0.00,WUHU21623XXSP,2013-01-05 19:32:00,
2013-01-05 14:37:00,27.7,20.2,30.16,SW,225,0.3,5.1,73,0.00,,,0.00,WUHU21623XXSP,2013-01-05 19:37:00,
2013-01-05 14:42:00,27.8,20.3,30.16,SSW,202,1.1,5.1,73,0.00,,,0.00,WUHU21623XXSP,2013-01-05 19:42:00,
2013-01-05 14:47:00,27.9,20.4,30.16,SW,225,1.1,2.0,73,0.00,,,0.00,WUHU21623XXSP,2013-01-05 19:47:00,
2013-01-05 14:52:00,28.0,20.5,30.16,WSW,247,2.5,2.5,73,0.00,,,0.00,WUHU21623XXSP,2013-01-05 19:52:00,
2013-01-05 14:57:00,28.2,20.7,30.16,SW,225,0.4,2.5,73,0.00,,,0.00,WUHU21623XXSP,2013-01-05 19:57:00,
2013-01-05 15:02:00,28.3,20.8,30.16,SW,225,0.0,2.5,73,0.00,,,0.00,WUHU21623XXSP,2013-01-05 20:02:00,
2013-01-05 15:07:00,28.7,21.5,30.16,WSW,247,2.7,2.7,74,0.00,,,0.00,WUHU21623XXSP,2013-01-05 20:07:00,
2013-01-05 15:12:00,28.8,21.6,30.16,WSW,247,2.7,2.7,74,0.00,,,0.00,WUHU21623XXSP,2013-01-05 20:12:00,
2013-01-05 15:17:00,28.8,21.3,30.16,SSW,202,4.9,4.9,73,0.00,,,0.00,WUHU21623XXSP,2013-01-05 20:17:00,
2013-01-05 15:22:00,29.0,21.5,30.16,SSW,202,0.9,4.9,73,0.00,,,0.00,WUHU21623XXSP,2013-01-05 20:22:00,
2013-01-05 15:27:00,29.2,21.7,30.15,WSW,247,0.0,4.9,73,0.00,,,0.00,WUHU21623XXSP,2013-01-05 20:27:00,
2013-01-05 15:32:00,29.5,22.2,30.15,SW,225,1.6,1.6,74,0.00,,,0.00,WUHU21623XXSP,2013-01-05 20:32:00,
2013-01-05 15:37:00,29.7,22.4,30.16,SW,225,1.3,1.6,74,0.00,,,0.00,WUHU21623XXSP,2013-01-05 20:37:00,
2013-01-05 15:42:00,29.9,22.7,30.15,SW,225,0.0,1.3,74,0.00,,,0.00,WUHU21623XXSP,2013-01-05 20:42:00,
2013-01-05 15:47:00,30.2,22.9,30.15,WSW,247,2.0,6.9,74,0.00,,,0.00,WUHU21623XXSP,2013-01-05 20:47:00,
2013-01-05 15:52:00,30.4,23.2,30.15,SSW,202,3.4,6.9,74,0.00,,,0.00,WUHU21623XXSP,2013-01-05 20:52:00,
2013-01-05 15:57:00,30.6,23.4,30.15,SW,225,1.6,3.4,74,0.00,,,0.00,WUHU21623XXSP,2013-01-05 20:57:00,
2013-01-05 16:02:00,30.9,23.7,30.16,WSW,247,0.0,3.4,74,0.00,,,0.00,WUHU21623XXSP,2013-01-05 21:02:00,
2013-01-05 16:07:00,31.2,23.9,30.15,SW,224,3.7,5.8,74,0.00,,,0.00,WUHU21623XXSP,2013-01-05 21:07:00,
2013-01-05 16:12:00,31.5,24.5,30.14,WSW,247,2.2,5.8,75,0.00,,,0.00,WUHU21623XXSP,2013-01-05 21:12:00,
2013-01-05 16:17:00,31.8,24.5,30.15,West,270,1.1,2.7,74,0.00,,,0.00,WUHU21623XXSP,2013-01-05 21:17:00,
2013-01-05 16:22:00,32.1,25.1,30.16,WSW,247,3.4,3.4,75,0.00,,,0.00,WUHU21623XXSP,2013-01-05 21:22:00,
2013-01-05 16:27:00,32.4,25.4,30.17,NW,315,1.6,5.4,75,0.00,,,0.00,WUHU21623XXSP,2013-01-05 21:27:00,
2013-01-05 16:32:00,32.6,25.6,30.16,SW,225,7.4,7.4,75,0.00,,,0.00,WUHU21623XXSP,2013-01-05 21:32:00,
2013-01-05 16:37:00,33.0,25.9,30.16,NW,312,5.4,7.4,75,0.00,,,0.00,WUHU21623XXSP,2013-01-05 21:37:00,
2013-01-05 16:42:00,33.2,26.2,30.16,West,270,2.2,7.4,75,0.00,,,0.00,WUHU21623XXSP,2013-01-05 21:42:00,
2013-01-05 16:47:00,33.5,26.7,30.17,West,274,6.2,6.5,76,0.00,,,0.00,WUHU21623XXSP,2013-01-05 21:47:00,
2013-01-05 16:52:00,33.2,26.5,30.16,WNW,292,4.0,6.5,76,0.00,,,0.00,WUHU21623XXSP,2013-01-05 21:52:00,
2013-01-05 16:57:00,33.5,27.1,30.16,West,270,2.2,5.4,77,0.00,,,0.00,WUHU21623XXSP,2013-01-05 21:57:00,
2013-01-05 17:02:00,33.3,27.1,30.17,WNW,292,2.0,6.5,78,0.00,,,0.00,WUHU21623XXSP,2013-01-05 22:02:00,
2013-01-05 17:07:00,33.1,26.9,30.17,WNW,292,2.0,6.5,78,0.00,,,0.00,WUHU21623XXSP,2013-01-05 22:07:00,
2013-01-05 17:12:00,33.1,26.9,30.17,WSW,247,0.7,2.0,78,0.00,,,0.00,WUHU21623XXSP,2013-01-05 22:12:00,
2013-01-05 17:17:00,32.7,26.9,30.17,West,270,1.8,2.0,79,0.00,,,0.00,WUHU21623XXSP,2013-01-05 22:17:00,
2013-01-05 17:22:00,32.7,26.9,30.16,SW,214,3.3,4.7,79,0.00,,,0.00,WUHU21623XXSP,2013-01-05 22:22:00,
2013-01-05 17:27:00,32.5,26.8,30.16,SW,225,0.0,4.7,79,0.00,,,0.00,WUHU21623XXSP,2013-01-05 22:27:00,
2013-01-05 17:32:00,32.5,27.1,30.16,SW,225,0.0,2.5,80,0.00,,,0.00,WUHU21623XXSP,2013-01-05 22:32:00,
2013-01-05 17:37:00,32.4,26.9,30.16,SW,225,0.0,0.0,80,0.00,,,0.00,WUHU21623XXSP,2013-01-05 22:37:00,
2013-01-05 17:42:00,32.4,27.2,30.16,WSW,247,7.4,7.4,81,0.00,,,0.00,WUHU21623XXSP,2013-01-05 22:42:00,
2013-01-05 17:47:00,32.2,27.1,30.16,WSW,247,0.7,7.4,81,0.00,,,0.00,WUHU21623XXSP,2013-01-05 22:47:00,
2013-01-05 17:52:00,32.2,27.1,30.16,SSW,202,2.5,7.4,81,0.00,,,0.00,WUHU21623XXSP,2013-01-05 22:52:00,
2013-01-05 17:57:00,31.8,27.0,30.16,SW,225,0.7,4.7,82,0.00,,,0.00,WUHU21623XXSP,2013-01-05 22:57:00,
2013-01-05 18:02:00,31.8,26.7,30.16,SSW,202,1.8,4.7,81,0.00,,,0.00,WUHU21623XXSP,2013-01-05 23:02:00,
2013-01-05 18:07:00,31.8,27.0,30.16,West,262,1.2,1.8,82,0.00,,,0.00,WUHU21623XXSP,2013-01-05 23:07:00,
2013-01-05 18:12:00,31.8,27.0,30.16,SE,135,0.0,3.8,82,0.00,,,0.00,WUHU21623XXSP,2013-01-05 23:12:00,
2013-01-05 18:17:00,31.8,27.0,30.16,SW,225,2.3,3.8,82,0.00,,,0.00,WUHU21623XXSP,2013-01-05 23:17:00,
2013-01-05 18:22:00,31.6,26.8,30.15,SSW,202,0.0,2.7,82,0.00,,,0.00,WUHU21623XXSP,2013-01-05 23:22:00,
2013-01-05 18:27:00,31.6,26.8,30.15,WSW,247,0.0,0.9,82,0.00,,,0.00,WUHU21623XXSP,2013-01-05 23:27:00,
2013-01-05 18:32:00,31.6,27.1,30.15,WSW,247,0.0,0.0,83,0.00,,,0.00,WUHU21623XXSP,2013-01-05 23:32:00,
2013-01-05 18:37:00,31.6,27.1,30.14,WSW,247,0.0,0.0,83,0.00,,,0.00,WUHU21623XXSP,2013-01-05 23:37:00,
2013-01-05 18:42:00,31.6,27.1,30.15,SW,225,0.0,0.0,83,0.00,,,0.00,WUHU21623XXSP,2013-01-05 23:42:00,
2013-01-05 18:47:00,31.6,27.1,30.14,SSW,202,0.0,0.0,83,0.00,,,0.00,WUHU21623XXSP,2013-01-05 23:47:00,
2013-01-05 18:52:00,31.6,27.1,30.14,SSW,202,0.0,0.0,83,0.00,,,0.00,WUHU21623XXSP,2013-01-05 23:52:00,
2013-01-05 18:57:00,31.3,26.7,30.14,SSW,202,0.0,0.0,83,0.00,,,0.00,WUHU21623XXSP,2013-01-05 23:57:00,
2013-01-05 19:02:00,31.3,26.7,30.14,SW,225,0.0,0.0,83,0.00,,,0.00,WUHU21623XXSP,2013-01-06 00:02:00,
2013-01-05 19:07:00,31.3,26.7,30.14,SSW,202,1.3,1.3,83,0.00,,,0.00,WUHU21623XXSP,2013-01-06 00:07:00,
2013-01-05 19:12:00,31.3,26.7,30.14,South,180,0.0,1.3,83,0.00,,,0.00,WUHU21623XXSP,2013-01-06 00:12:00,
2013-01-05 19:17:00,31.1,26.6,30.14,SSW,204,2.3,4.5,83,0.00,,,0.00,WUHU21623XXSP,2013-01-06 00:17:00,
2013-01-05 19:22:00,30.9,26.4,30.15,SSW,202,0.9,4.5,83,0.00,,,0.00,WUHU21623XXSP,2013-01-06 00:22:00,
2013-01-05 19:27:00,30.9,26.4,30.14,SW,225,0.0,0.9,83,0.00,,,0.00,WUHU21623XXSP,2013-01-06 00:27:00,
2013-01-05 19:32:00,30.9,26.7,30.14,WSW,247,5.1,5.1,84,0.00,,,0.00,WUHU21623XXSP,2013-01-06 00:32:00,
2013-01-05 19:37:00,31.1,26.9,30.14,SW,215,2.8,5.1,84,0.00,,,0.00,WUHU21623XXSP,2013-01-06 00:37:00,
2013-01-05 19:42:00,31.1,26.9,30.14,SW,225,2.7,5.1,84,0.00,,,0.00,WUHU21623XXSP,2013-01-06 00:42:00,
2013-01-05 19:47:00,31.1,26.9,30.14,SW,225,2.7,2.7,84,0.00,,,0.00,WUHU21623XXSP,2013-01-06 00:47:00,
2013-01-05 19:52:00,31.1,26.9,30.14,SSW,202,6.9,6.9,84,0.00,,,0.00,WUHU21623XXSP,2013-01-06 00:52:00,
2013-01-05 19:57:00,31.3,27.0,30.14,SW,225,4.5,6.9,84,0.00,,,0.00,WUHU21623XXSP,2013-01-06 00:57:00,
2013-01-05 20:02:00,31.3,27.0,30.14,West,270,5.4,7.2,84,0.00,,,0.00,WUHU21623XXSP,2013-01-06 01:02:00,
2013-01-05 20:07:00,31.3,27.0,30.14,SSW,202,2.7,7.2,84,0.00,,,0.00,WUHU21623XXSP,2013-01-06 01:07:00,
2013-01-05 20:12:00,31.3,27.0,30.14,SW,223,4.6,6.0,84,0.00,,,0.00,WUHU21623XXSP,2013-01-06 01:12:00,
2013-01-05 20:17:00,31.5,27.2,30.14,SW,225,4.0,6.0,84,0.00,,,0.00,WUHU21623XXSP,2013-01-06 01:17:00,
2013-01-05 20:22:00,31.3,27.0,30.14,SW,225,1.8,4.5,84,0.00,,,0.00,WUHU21623XXSP,2013-01-06 01:22:00,
2013-01-05 20:27:00,31.6,27.4,30.14,SSW,202,4.7,4.7,84,0.00,,,0.00,WUHU21623XXSP,2013-01-06 01:27:00,
2013-01-05 20:32:00,31.6,27.4,30.14,SSW,213,4.3,4.7,84,0.00,,,0.00,WUHU21623XXSP,2013-01-06 01:32:00,
2013-01-05 20:37:00,31.6,27.4,30.14,WNW,292,3.1,4.7,84,0.00,,,0.00,WUHU21623XXSP,2013-01-06 01:37:00,
2013-01-05 20:42:00,31.6,27.4,30.14,SSW,202,4.0,6.0,84,0.00,,,0.00,WUHU21623XXSP,2013-01-06 01:42:00,
2013-01-05 20:47:00,31.6,27.4,30.13,SW,225,1.1,6.0,84,0.00,,,0.00,WUHU21623XXSP,2013-01-06 01:47:00,
2013-01-05 20:52:00,31.6,27.4,30.13,WSW,253,1.9,4.0,84,0.00,,,0.00,WUHU21623XXSP,2013-01-06 01:52:00,
2013-01-05 20:57:00,31.6,27.4,30.13,SW,225,2.0,2.5,84,0.00,,,0.00,WUHU21623XXSP,2013-01-06 01:57:00,
2013-01-05 21:02:00,31.6,27.4,30.13,WNW,292,1.3,2.0,84,0.00,,,0.00,WUHU21623XXSP,2013-01-06 02:02:00,
2013-01-05 21:07:00,31.6,27.4,30.12,SW,225,5.8,5.8,84,0.00,,,0.00,WUHU21623XXSP,2013-01-06 02:07:00,
2013-01-05 21:12:00,31.8,27.6,30.12,SW,225,2.7,5.8,84,0.00,,,0.00,WUHU21623XXSP,2013-01-06 02:12:00,
2013-01-05 21:17:00,31.8,27.6,30.12,SW,225,1.8,5.8,84,0.00,,,0.00,WUHU21623XXSP,2013-01-06 02:17:00,
2013-01-05 21:22:00,31.6,27.4,30.13,SW,225,4.9,4.9,84,0.00,,,0.00,WUHU21623XXSP,2013-01-06 02:22:00,
2013-01-05 21:27:00,31.8,27.6,30.13,SW,225,2.9,4.9,84,0.00,,,0.00,WUHU21623XXSP,2013-01-06 02:27:00,
2013-01-05 21:32:00,31.8,27.6,30.13,WSW,247,1.6,4.9,84,0.00,,,0.00,WUHU21623XXSP,2013-01-06 02:32:00,
2013-01-05 21:37:00,31.8,27.6,30.13,SW,214,4.9,5.4,84,0.00,,,0.00,WUHU21623XXSP,2013-01-06 02:37:00,
2013-01-05 21:42:00,31.8,27.6,30.13,SW,225,3.5,5.4,84,0.00,,,0.00,WUHU21623XXSP,2013-01-06 02:42:00,
2013-01-05 21:47:00,31.8,27.6,30.13,WSW,247,3.1,6.3,84,0.00,,,0.00,WUHU21623XXSP,2013-01-06 02:47:00,
2013-01-05 21:52:00,31.8,27.6,30.13,SW,225,1.1,6.3,84,0.00,,,0.00,WUHU21623XXSP,2013-01-06 02:52:00,
2013-01-05 21:57:00,31.8,27.6,30.13,SW,225,1.1,3.1,84,0.00,,,0.00,WUHU21623XXSP,2013-01-06 02:57:00,
2013-01-05 22:02:00,31.8,27.6,30.12,SSW,202,6.0,6.0,84,0.00,,,0.00,WUHU21623XXSP,2013-01-06 03:02:00,
2013-01-05 22:07:00,32.0,27.8,30.12,SW,225,6.7,6.9,84,0.00,,,0.00,WUHU21623XXSP,2013-01-06 03:07:00,
2013-01-05 22:12:00,32.2,27.9,30.12,SSW,202,1.6,6.9,84,0.00,,,0.00,WUHU21623XXSP,2013-01-06 03:12:00,
2013-01-05 22:17:00,32.2,27.9,30.12,SW,225,2.7,6.5,84,0.00,,,0.00,WUHU21623XXSP,2013-01-06 03:17:00,
2013-01-05 22:22:00,32.2,27.9,30.11,SSW,202,3.6,3.8,84,0.00,,,0.00,WUHU21623XXSP,2013-01-06 03:22:00,
2013-01-05 22:27:00,31.8,27.6,30.11,South,180,2.2,3.8,84,0.00,,,0.00,WUHU21623XXSP,2013-01-06 03:27:00,
2013-01-05 22:32:00,31.8,27.6,30.10,South,180,0.0,4.5,84,0.00,,,0.00,WUHU21623XXSP,2013-01-06 03:32:00,
2013-01-05 22:37:00,31.8,27.3,30.10,SW,225,0.7,4.5,83,0.00,,,0.00,WUHU21623XXSP,2013-01-06 03:37:00,
2013-01-05 22:42:00,31.8,27.3,30.10,SW,225,0.7,0.7,83,0.00,,,0.00,WUHU21623XXSP,2013-01-06 03:42:00,
2013-01-05 22:47:00,31.8,27.6,30.10,SSW,202,6.9,6.9,84,0.00,,,0.00,WUHU21623XXSP,2013-01-06 03:47:00,
2013-01-05 22:52:00,31.8,27.6,30.10,SW,225,5.1,6.9,84,0.00,,,0.00,WUHU21623XXSP,2013-01-06 03:52:00,
2013-01-05 22:57:00,31.8,27.6,30.10,SW,225,5.1,6.9,84,0.00,,,0.00,WUHU21623XXSP,2013-01-06 03:57:00,
2013-01-05 23:02:00,32.2,27.9,30.10,SW,225,6.3,6.3,84,0.00,,,0.00,WUHU21623XXSP,2013-01-06 04:02:00,
2013-01-05 23:07:00,32.4,28.1,30.10,SW,225,2.0,6.3,84,0.00,,,0.00,WUHU21623XXSP,2013-01-06 04:07:00,
2013-01-05 23:12:00,32.5,28.2,30.10,SW,225,7.4,7.4,84,0.00,,,0.00,WUHU21623XXSP,2013-01-06 04:12:00,
2013-01-05 23:17:00,32.7,28.4,30.10,SW,225,1.8,7.4,84,0.00,,,0.00,WUHU21623XXSP,2013-01-06 04:17:00,
2013-01-05 23:22:00,32.7,28.4,30.10,West,270,4.0,7.4,84,0.00,,,0.00,WUHU21623XXSP,2013-01-06 04:22:00,
2013-01-05 23:27:00,32.7,28.4,30.10,WSW,247,5.1,7.8,84,0.00,,,0.00,WUHU21623XXSP,2013-01-06 04:27:00,
2013-01-05 23:32:00,32.9,28.6,30.10,SW,228,2.1,7.8,84,0.00,,,0.00,WUHU21623XXSP,2013-01-06 04:32:00,
2013-01-05 23:37:00,32.9,28.6,30.10,SSW,202,3.1,3.8,84,0.00,,,0.00,WUHU21623XXSP,2013-01-06 04:37:00,
2013-01-05 23:42:00,33.1,28.7,30.10,WSW,247,0.9,3.1,84,0.00,,,0.00,WUHU21623XXSP,2013-01-06 04:42:00,
2013-01-05 23:47:00,33.1,28.4,30.09,SW,225,5.6,5.8,83,0.00,,,0.00,WUHU21623XXSP,2013-01-06 04:47:00,
2013-01-05 23:52:00,33.1,28.4,30.09,SSW,202,6.3,6.3,83,0.00,,,0.00,WUHU21623XXSP,2013-01-06 04:52:00,
2013-01-05 23:57:00,33.3,28.6,30.09,SW,225,1.1,6.7,83,0.00,,,0.00,WUHU21623XXSP,2013-01-06 04:57:00,